createdAt,value
2022-09-28T00:00:08.942Z,99.90
2022-09-28T00:00:18.405Z,99.90
2022-09-28T00:00:27.806Z,99.90
2022-09-28T00:00:37.237Z,99.90
2022-09-28T00:00:46.658Z,99.90
2022-09-28T00:00:56.052Z,99.90
2022-09-28T00:01:05.467Z,99.90
2022-09-28T00:01:14.883Z,99.90
2022-09-28T00:01:24.397Z,99.90
2022-09-28T00:01:43.290Z,99.90
2022-09-28T00:01:52.694Z,99.90
2022-09-28T00:02:02.082Z,99.90
2022-09-28T00:02:11.631Z,99.90
2022-09-28T00:02:21.037Z,99.90
2022-09-28T00:02:30.435Z,99.90
2022-09-28T00:02:39.791Z,99.90
2022-09-28T00:02:49.192Z,99.90
2022-09-28T00:02:58.567Z,99.90
2022-09-28T00:03:08.020Z,99.90
2022-09-28T00:03:17.374Z,99.90
2022-09-28T00:03:26.772Z,99.90
2022-09-28T00:03:36.233Z,99.90
2022-09-28T00:03:45.622Z,99.90
2022-09-28T00:03:55.025Z,99.90
2022-09-28T00:04:04.435Z,99.90
2022-09-28T00:04:23.480Z,99.90
2022-09-28T00:04:32.883Z,99.90
2022-09-28T00:04:42.293Z,99.90
2022-09-28T00:04:51.708Z,99.90
2022-09-28T00:05:01.123Z,99.90
2022-09-28T00:05:10.555Z,99.90
2022-09-28T00:05:19.982Z,99.90
2022-09-28T00:05:29.388Z,99.90
2022-09-28T00:05:38.808Z,99.90
2022-09-28T00:05:48.198Z,99.90
2022-09-28T00:05:57.592Z,99.90
2022-09-28T00:06:07.004Z,99.90
2022-09-28T00:06:16.408Z,99.90
2022-09-28T00:06:25.901Z,99.90
2022-09-28T00:06:35.311Z,99.90
2022-09-28T00:06:44.714Z,99.90
2022-09-28T00:06:54.109Z,99.90
2022-09-28T00:07:13.257Z,99.90
2022-09-28T00:07:22.663Z,99.90
2022-09-28T00:07:32.093Z,99.90
2022-09-28T00:07:41.498Z,99.90
2022-09-28T00:07:50.910Z,99.90
2022-09-28T00:08:00.326Z,99.90
2022-09-28T00:08:09.778Z,99.90
2022-09-28T00:08:19.210Z,99.90
2022-09-28T00:08:28.687Z,99.90
2022-09-28T00:08:38.083Z,99.90
2022-09-28T00:08:47.537Z,99.90
2022-09-28T00:08:56.956Z,99.90
2022-09-28T00:09:06.376Z,99.90
2022-09-28T00:09:15.801Z,99.90
2022-09-28T00:09:25.216Z,99.90
2022-09-28T00:09:34.636Z,99.90
2022-09-28T00:09:53.478Z,99.90
2022-09-28T00:10:02.871Z,99.90
2022-09-28T00:10:12.286Z,99.90
2022-09-28T00:10:21.702Z,99.90
2022-09-28T00:10:31.121Z,99.90
2022-09-28T00:10:40.542Z,99.90
2022-09-28T00:10:49.967Z,99.90
2022-09-28T00:10:59.375Z,99.90
2022-09-28T00:11:08.774Z,99.90
2022-09-28T00:11:18.194Z,99.90
2022-09-28T00:11:27.592Z,99.90
2022-09-28T00:11:37.006Z,99.90
2022-09-28T00:11:46.773Z,99.90
2022-09-28T00:11:56.193Z,99.90
2022-09-28T00:12:05.643Z,99.90
2022-09-28T00:12:15.071Z,99.90
2022-09-28T00:12:24.479Z,99.90
2022-09-28T00:12:43.307Z,99.90
2022-09-28T00:12:52.727Z,99.90
2022-09-28T00:13:02.129Z,99.90
2022-09-28T00:13:11.784Z,99.90
2022-09-28T00:13:21.210Z,99.90
2022-09-28T00:13:30.578Z,99.90
2022-09-28T00:13:40.003Z,99.90
2022-09-28T00:13:49.410Z,99.90
2022-09-28T00:13:58.822Z,99.90
2022-09-28T00:14:08.236Z,99.90
2022-09-28T00:14:17.654Z,99.90
2022-09-28T00:14:27.063Z,99.90
2022-09-28T00:14:36.460Z,99.90
2022-09-28T00:14:45.882Z,99.90
2022-09-28T00:14:55.283Z,99.90
2022-09-28T00:15:04.693Z,99.90
2022-09-28T00:15:14.098Z,99.90
2022-09-28T00:15:32.937Z,99.90
2022-09-28T00:15:42.360Z,99.90
2022-09-28T00:15:51.758Z,99.90
2022-09-28T00:16:01.249Z,99.90
2022-09-28T00:16:10.736Z,99.90
2022-09-28T00:16:20.117Z,99.90
2022-09-28T00:16:29.598Z,99.90
2022-09-28T00:16:38.997Z,99.90
2022-09-28T00:16:48.427Z,99.90
2022-09-28T00:16:57.767Z,99.90
2022-09-28T00:17:07.194Z,99.90
2022-09-28T00:17:16.603Z,99.90
2022-09-28T00:17:26.024Z,99.90
2022-09-28T00:17:35.450Z,99.90
2022-09-28T00:17:44.857Z,99.90
2022-09-28T00:17:54.272Z,99.90
2022-09-28T00:18:13.123Z,99.90
2022-09-28T00:18:22.550Z,99.90
2022-09-28T00:18:31.964Z,99.90
2022-09-28T00:18:41.398Z,99.90
2022-09-28T00:18:50.823Z,99.90
2022-09-28T00:19:00.236Z,99.90
2022-09-28T00:19:09.654Z,99.90
2022-09-28T00:19:19.037Z,99.90
2022-09-28T00:19:28.446Z,99.90
2022-09-28T00:19:37.843Z,99.90
2022-09-28T00:19:47.267Z,99.90
2022-09-28T00:19:56.666Z,99.90
2022-09-28T00:20:06.098Z,99.90
2022-09-28T00:20:15.500Z,99.90
2022-09-28T00:20:24.941Z,99.90
2022-09-28T00:20:34.364Z,99.90
2022-09-28T00:20:53.210Z,99.90
2022-09-28T00:21:02.631Z,99.90
2022-09-28T00:21:12.052Z,99.90
2022-09-28T00:21:21.489Z,99.90
2022-09-28T00:21:30.900Z,99.90
2022-09-28T00:21:40.316Z,99.90
2022-09-28T00:21:49.712Z,99.90
2022-09-28T00:21:59.156Z,99.90
2022-09-28T00:22:08.540Z,99.90
2022-09-28T00:22:17.953Z,99.90
2022-09-28T00:22:27.368Z,99.90
2022-09-28T00:22:36.765Z,99.90
2022-09-28T00:22:46.181Z,99.90
2022-09-28T00:22:55.584Z,99.90
2022-09-28T00:23:04.990Z,99.90
2022-09-28T00:23:14.458Z,99.90
2022-09-28T00:23:33.324Z,99.90
2022-09-28T00:23:42.725Z,99.90
2022-09-28T00:23:52.150Z,99.90
2022-09-28T00:24:01.577Z,99.90
2022-09-28T00:24:11.028Z,99.90
2022-09-28T00:24:24.022Z,99.90
2022-09-28T00:24:29.867Z,99.90
2022-09-28T00:24:39.318Z,99.90
2022-09-28T00:24:48.739Z,99.90
2022-09-28T00:24:58.146Z,99.90
2022-09-28T00:25:07.568Z,99.90
2022-09-28T00:25:17.047Z,99.90
2022-09-28T00:25:26.410Z,99.90
2022-09-28T00:25:35.819Z,99.90
2022-09-28T00:25:45.266Z,99.90
2022-09-28T00:25:54.685Z,99.90
2022-09-28T00:26:04.082Z,99.90
2022-09-28T00:26:22.938Z,99.90
2022-09-28T00:26:32.366Z,99.90
2022-09-28T00:26:41.780Z,99.90
2022-09-28T00:26:51.207Z,99.90
2022-09-28T00:27:00.676Z,99.90
2022-09-28T00:27:10.088Z,99.90
2022-09-28T00:27:19.503Z,99.90
2022-09-28T00:27:28.892Z,99.90
2022-09-28T00:27:38.309Z,99.90
2022-09-28T00:27:47.734Z,99.90
2022-09-28T00:27:57.151Z,99.90
2022-09-28T00:28:06.562Z,99.90
2022-09-28T00:28:15.978Z,99.90
2022-09-28T00:28:25.441Z,99.90
2022-09-28T00:28:34.835Z,99.90
2022-09-28T00:28:44.262Z,99.90
2022-09-28T00:29:03.096Z,99.90
2022-09-28T00:29:12.536Z,99.90
2022-09-28T00:29:21.943Z,99.90
2022-09-28T00:29:31.381Z,99.90
2022-09-28T00:29:40.806Z,99.90
2022-09-28T00:29:50.204Z,99.90
2022-09-28T00:29:59.629Z,99.90
2022-09-28T00:30:09.051Z,99.90
2022-09-28T00:30:18.513Z,99.90
2022-09-28T00:30:27.929Z,99.90
2022-09-28T00:30:37.358Z,99.90
2022-09-28T00:30:46.763Z,99.90
2022-09-28T00:30:56.242Z,99.90
2022-09-28T00:31:05.747Z,99.90
2022-09-28T00:31:15.166Z,99.90
2022-09-28T00:31:24.561Z,99.90
2022-09-28T00:31:43.455Z,99.90
2022-09-28T00:31:52.841Z,99.90
2022-09-28T00:32:02.271Z,99.90
2022-09-28T00:32:11.624Z,99.90
2022-09-28T00:32:21.045Z,99.90
2022-09-28T00:32:30.463Z,99.90
2022-09-28T00:32:39.869Z,99.90
2022-09-28T00:32:49.280Z,99.90
2022-09-28T00:32:58.715Z,99.90
2022-09-28T00:33:08.140Z,99.90
2022-09-28T00:33:17.589Z,99.90
2022-09-28T00:33:26.992Z,99.90
2022-09-28T00:33:36.405Z,99.90
2022-09-28T00:33:45.840Z,99.90
2022-09-28T00:33:55.234Z,99.90
2022-09-28T00:34:04.632Z,99.90
2022-09-28T00:34:23.451Z,99.90
2022-09-28T00:34:32.863Z,99.90
2022-09-28T00:34:42.257Z,99.90
2022-09-28T00:34:51.674Z,99.90
2022-09-28T00:35:01.089Z,99.90
2022-09-28T00:35:10.511Z,99.90
2022-09-28T00:35:19.932Z,99.90
2022-09-28T00:35:29.339Z,99.90
2022-09-28T00:35:38.755Z,99.90
2022-09-28T00:35:48.157Z,99.90
2022-09-28T00:35:57.592Z,99.90
2022-09-28T00:36:07.018Z,99.90
2022-09-28T00:36:16.427Z,99.90
2022-09-28T00:36:25.833Z,99.90
2022-09-28T00:36:35.276Z,99.90
2022-09-28T00:36:44.687Z,99.90
2022-09-28T00:36:54.144Z,99.90
2022-09-28T00:37:12.958Z,99.90
2022-09-28T00:37:22.359Z,99.90
2022-09-28T00:37:31.761Z,99.90
2022-09-28T00:37:41.179Z,99.90
2022-09-28T00:37:50.643Z,99.90
2022-09-28T00:38:00.083Z,99.90
2022-09-28T00:38:09.495Z,99.90
2022-09-28T00:38:18.913Z,99.90
2022-09-28T00:38:28.325Z,99.90
2022-09-28T00:38:37.725Z,99.90
2022-09-28T00:38:47.136Z,99.90
2022-09-28T00:38:56.594Z,99.90
2022-09-28T00:39:05.976Z,99.90
2022-09-28T00:39:15.510Z,99.90
2022-09-28T00:39:24.808Z,99.90
2022-09-28T00:39:34.212Z,99.90
2022-09-28T00:39:53.041Z,99.90
2022-09-28T00:40:02.458Z,99.90
2022-09-28T00:40:11.873Z,99.90
2022-09-28T00:40:21.363Z,99.90
2022-09-28T00:40:30.821Z,99.90
2022-09-28T00:40:40.253Z,99.90
2022-09-28T00:40:49.613Z,99.90
2022-09-28T00:40:59.088Z,99.90
2022-09-28T00:41:08.385Z,99.90
2022-09-28T00:41:17.825Z,99.90
2022-09-28T00:41:27.268Z,99.90
2022-09-28T00:41:36.668Z,99.90
2022-09-28T00:41:46.081Z,99.90
2022-09-28T00:41:55.550Z,99.90
2022-09-28T00:42:04.957Z,99.90
2022-09-28T00:42:14.371Z,99.90
2022-09-28T00:42:33.296Z,99.90
2022-09-28T00:42:42.710Z,99.90
2022-09-28T00:42:52.134Z,99.90
2022-09-28T00:43:01.579Z,99.90
2022-09-28T00:43:11.019Z,99.90
2022-09-28T00:43:20.488Z,99.90
2022-09-28T00:43:29.929Z,99.90
2022-09-28T00:43:39.308Z,99.90
2022-09-28T00:43:48.747Z,99.90
2022-09-28T00:43:58.177Z,99.90
2022-09-28T00:44:07.592Z,99.90
2022-09-28T00:44:17.009Z,99.90
2022-09-28T00:44:26.428Z,99.90
2022-09-28T00:44:35.819Z,99.90
2022-09-28T00:44:45.255Z,99.90
2022-09-28T00:44:54.681Z,99.90
2022-09-28T00:45:04.102Z,99.90
2022-09-28T00:45:22.915Z,99.90
2022-09-28T00:45:32.404Z,99.90
2022-09-28T00:45:41.837Z,99.90
2022-09-28T00:45:51.219Z,99.90
2022-09-28T00:46:00.648Z,99.90
2022-09-28T00:46:10.107Z,99.90
2022-09-28T00:46:19.499Z,99.90
2022-09-28T00:46:28.839Z,99.90
2022-09-28T00:46:38.239Z,99.90
2022-09-28T00:46:47.651Z,99.90
2022-09-28T00:46:57.087Z,99.90
2022-09-28T00:47:06.487Z,99.90
2022-09-28T00:47:15.902Z,99.90
2022-09-28T00:47:25.325Z,99.90
2022-09-28T00:47:34.729Z,99.90
2022-09-28T00:47:44.148Z,99.90
2022-09-28T00:48:02.961Z,99.90
2022-09-28T00:48:12.376Z,99.90
2022-09-28T00:48:21.836Z,99.90
2022-09-28T00:48:31.296Z,99.90
2022-09-28T00:48:40.705Z,99.90
2022-09-28T00:48:50.118Z,99.90
2022-09-28T00:48:59.543Z,99.90
2022-09-28T00:49:08.968Z,99.90
2022-09-28T00:49:18.553Z,99.90
2022-09-28T00:49:27.803Z,99.90
2022-09-28T00:49:37.219Z,99.90
2022-09-28T00:49:46.650Z,99.90
2022-09-28T00:49:56.118Z,99.90
2022-09-28T00:50:05.548Z,99.90
2022-09-28T00:50:14.967Z,99.90
2022-09-28T00:50:24.386Z,99.90
2022-09-28T00:50:43.216Z,99.90
2022-09-28T00:50:52.643Z,99.90
2022-09-28T00:51:02.059Z,99.90
2022-09-28T00:51:11.487Z,99.90
2022-09-28T00:51:20.920Z,99.90
2022-09-28T00:51:30.343Z,99.90
2022-09-28T00:51:39.767Z,99.90
2022-09-28T00:51:49.176Z,99.90
2022-09-28T00:51:58.610Z,99.90
2022-09-28T00:52:08.013Z,99.90
2022-09-28T00:52:17.440Z,99.90
2022-09-28T00:52:26.869Z,99.90
2022-09-28T00:52:36.287Z,99.90
2022-09-28T00:52:45.703Z,99.90
2022-09-28T00:52:56.139Z,99.90
2022-09-28T00:53:04.607Z,99.90
2022-09-28T00:53:23.474Z,99.90
2022-09-28T00:53:32.906Z,99.90
2022-09-28T00:53:42.314Z,99.90
2022-09-28T00:53:51.779Z,99.90
2022-09-28T00:54:01.211Z,99.90
2022-09-28T00:54:10.636Z,99.90
2022-09-28T00:54:20.048Z,99.90
2022-09-28T00:54:29.676Z,99.90
2022-09-28T00:54:39.097Z,99.90
2022-09-28T00:54:48.522Z,99.90
2022-09-28T00:54:57.940Z,99.90
2022-09-28T00:55:07.358Z,99.90
2022-09-28T00:55:16.779Z,99.90
2022-09-28T00:55:26.212Z,99.90
2022-09-28T00:55:35.638Z,99.90
2022-09-28T00:55:45.073Z,99.90
2022-09-28T00:55:54.494Z,99.90
2022-09-28T00:56:13.382Z,99.90
2022-09-28T00:56:22.793Z,99.90
2022-09-28T00:56:32.188Z,99.90
2022-09-28T00:56:41.607Z,99.90
2022-09-28T00:56:51.024Z,99.90
2022-09-28T00:57:00.416Z,99.90
2022-09-28T00:57:09.838Z,99.90
2022-09-28T00:57:19.247Z,99.90
2022-09-28T00:57:28.674Z,99.90
2022-09-28T00:57:38.073Z,99.90
2022-09-28T00:57:47.474Z,99.90
2022-09-28T00:57:56.917Z,99.90
2022-09-28T00:58:06.328Z,99.90
2022-09-28T00:58:15.740Z,99.90
2022-09-28T00:58:25.178Z,99.90
2022-09-28T00:58:34.611Z,99.90
2022-09-28T00:58:53.411Z,99.90
2022-09-28T00:59:02.849Z,99.90
2022-09-28T00:59:12.252Z,99.90
2022-09-28T00:59:21.686Z,99.90
2022-09-28T00:59:31.092Z,99.90
2022-09-28T00:59:40.545Z,99.90
2022-09-28T00:59:49.954Z,99.90
2022-09-28T00:59:59.359Z,99.90
2022-09-28T01:00:08.798Z,99.90
2022-09-28T01:00:18.229Z,99.90
2022-09-28T01:00:27.638Z,99.90
2022-09-28T01:00:37.078Z,99.90
2022-09-28T01:00:46.571Z,99.90
2022-09-28T01:00:55.984Z,99.90
2022-09-28T01:01:05.324Z,99.90
2022-09-28T01:01:14.817Z,99.90
2022-09-28T01:01:24.244Z,99.90
2022-09-28T01:01:43.113Z,99.90
2022-09-28T01:01:52.540Z,99.90
2022-09-28T01:02:02.018Z,99.90
2022-09-28T01:02:11.530Z,99.90
2022-09-28T01:02:20.993Z,99.90
2022-09-28T01:02:30.436Z,99.90
2022-09-28T01:02:39.869Z,99.90
2022-09-28T01:02:49.301Z,99.90
2022-09-28T01:02:58.774Z,99.90
2022-09-28T01:03:08.197Z,99.90
2022-09-28T01:03:17.617Z,99.90
2022-09-28T01:03:27.079Z,99.90
2022-09-28T01:03:36.526Z,99.90
2022-09-28T01:03:45.973Z,99.90
2022-09-28T01:03:55.416Z,99.90
2022-09-28T01:04:04.844Z,99.90
2022-09-28T01:04:14.314Z,99.90
2022-09-28T01:04:33.230Z,99.90
2022-09-28T01:04:42.651Z,99.90
2022-09-28T01:04:52.089Z,99.90
2022-09-28T01:05:01.523Z,99.90
2022-09-28T01:05:10.915Z,99.90
2022-09-28T01:05:20.391Z,99.90
2022-09-28T01:05:29.814Z,99.90
2022-09-28T01:05:39.233Z,99.90
2022-09-28T01:05:48.674Z,99.90
2022-09-28T01:05:58.138Z,99.90
2022-09-28T01:06:07.593Z,99.90
2022-09-28T01:06:17.022Z,99.90
2022-09-28T01:06:26.471Z,99.90
2022-09-28T01:06:35.971Z,99.90
2022-09-28T01:06:45.394Z,99.90
2022-09-28T01:06:54.816Z,99.90
2022-09-28T01:07:04.232Z,99.90
2022-09-28T01:07:23.168Z,99.90
2022-09-28T01:07:32.588Z,99.90
2022-09-28T01:07:42.011Z,99.90
2022-09-28T01:07:51.437Z,99.90
2022-09-28T01:08:00.855Z,99.90
2022-09-28T01:08:10.273Z,99.90
2022-09-28T01:08:19.728Z,99.90
2022-09-28T01:08:29.191Z,99.90
2022-09-28T01:08:38.608Z,99.90
2022-09-28T01:08:48.051Z,99.90
2022-09-28T01:08:57.471Z,99.90
2022-09-28T01:09:06.932Z,99.90
2022-09-28T01:09:16.470Z,99.90
2022-09-28T01:09:25.749Z,99.90
2022-09-28T01:09:35.203Z,99.90
2022-09-28T01:09:44.618Z,99.90
2022-09-28T01:10:03.477Z,99.90
2022-09-28T01:10:12.883Z,99.90
2022-09-28T01:10:22.301Z,99.90
2022-09-28T01:10:31.746Z,99.90
2022-09-28T01:10:41.158Z,99.90
2022-09-28T01:10:50.608Z,99.90
2022-09-28T01:11:00.074Z,99.90
2022-09-28T01:11:09.479Z,99.90
2022-09-28T01:11:18.894Z,99.90
2022-09-28T01:11:28.316Z,99.90
2022-09-28T01:11:37.739Z,99.90
2022-09-28T01:11:47.212Z,99.90
2022-09-28T01:11:56.656Z,99.90
2022-09-28T01:12:06.107Z,99.90
2022-09-28T01:12:15.545Z,99.90
2022-09-28T01:12:24.961Z,99.90
2022-09-28T01:12:34.357Z,99.90
2022-09-28T01:12:53.142Z,99.90
2022-09-28T01:13:02.560Z,99.90
2022-09-28T01:13:11.987Z,99.90
2022-09-28T01:13:21.417Z,99.90
2022-09-28T01:13:31.238Z,99.90
2022-09-28T01:13:40.689Z,99.90
2022-09-28T01:13:50.103Z,99.90
2022-09-28T01:13:59.608Z,99.90
2022-09-28T01:14:09.015Z,99.90
2022-09-28T01:14:18.445Z,99.90
2022-09-28T01:14:27.866Z,99.90
2022-09-28T01:14:37.284Z,99.90
2022-09-28T01:14:46.708Z,99.90
2022-09-28T01:14:56.123Z,99.90
2022-09-28T01:15:05.562Z,99.90
2022-09-28T01:15:14.977Z,99.90
2022-09-28T01:15:24.386Z,99.90
2022-09-28T01:15:43.228Z,99.90
2022-09-28T01:15:52.732Z,99.90
2022-09-28T01:16:02.151Z,99.90
2022-09-28T01:16:11.481Z,99.90
2022-09-28T01:16:20.962Z,99.90
2022-09-28T01:16:30.456Z,99.90
2022-09-28T01:16:39.763Z,99.90
2022-09-28T01:16:49.224Z,99.90
2022-09-28T01:16:58.522Z,99.90
2022-09-28T01:17:07.942Z,99.90
2022-09-28T01:17:17.378Z,99.90
2022-09-28T01:17:26.792Z,99.90
2022-09-28T01:17:36.218Z,99.90
2022-09-28T01:17:45.660Z,99.90
2022-09-28T01:17:55.083Z,99.90
2022-09-28T01:18:04.478Z,99.90
2022-09-28T01:18:23.293Z,99.90
2022-09-28T01:18:32.742Z,99.90
2022-09-28T01:18:42.152Z,99.90
2022-09-28T01:18:51.577Z,99.90
2022-09-28T01:19:00.988Z,99.90
2022-09-28T01:19:10.438Z,99.90
2022-09-28T01:19:19.786Z,99.90
2022-09-28T01:19:29.251Z,99.90
2022-09-28T01:19:38.644Z,99.90
2022-09-28T01:19:48.074Z,99.90
2022-09-28T01:19:57.489Z,99.90
2022-09-28T01:20:06.908Z,99.90
2022-09-28T01:20:16.333Z,99.90
2022-09-28T01:20:25.753Z,99.90
2022-09-28T01:20:35.172Z,99.90
2022-09-28T01:20:44.599Z,99.90
2022-09-28T01:21:03.538Z,99.90
2022-09-28T01:21:12.962Z,99.90
2022-09-28T01:21:22.376Z,99.90
2022-09-28T01:21:31.792Z,99.90
2022-09-28T01:21:41.222Z,99.90
2022-09-28T01:21:50.635Z,99.90
2022-09-28T01:22:00.072Z,99.90
2022-09-28T01:22:09.482Z,99.90
2022-09-28T01:22:18.896Z,99.90
2022-09-28T01:22:28.299Z,99.90
2022-09-28T01:22:37.701Z,99.90
2022-09-28T01:22:47.124Z,99.90
2022-09-28T01:22:56.547Z,99.90
2022-09-28T01:23:06.003Z,99.90
2022-09-28T01:23:15.431Z,99.90
2022-09-28T01:23:24.850Z,99.90
2022-09-28T01:23:34.516Z,99.90
2022-09-28T01:23:53.317Z,99.90
2022-09-28T01:24:02.732Z,99.90
2022-09-28T01:24:12.159Z,99.90
2022-09-28T01:24:21.586Z,99.90
2022-09-28T01:24:30.996Z,99.90
2022-09-28T01:24:40.421Z,99.90
2022-09-28T01:24:49.836Z,99.90
2022-09-28T01:24:59.339Z,99.90
2022-09-28T01:25:08.734Z,99.90
2022-09-28T01:25:18.167Z,99.90
2022-09-28T01:25:27.567Z,99.60
2022-09-28T01:25:36.972Z,99.60
2022-09-28T01:25:46.396Z,99.50
2022-09-28T01:25:55.851Z,99.30
2022-09-28T01:26:05.252Z,99.20
2022-09-28T01:26:14.664Z,99.10
2022-09-28T01:26:24.125Z,98.90
2022-09-28T01:26:42.963Z,98.30
2022-09-28T01:26:52.375Z,98.20
2022-09-28T01:27:01.795Z,98.00
2022-09-28T01:27:11.226Z,98.00
2022-09-28T01:27:20.643Z,98.00
2022-09-28T01:27:30.023Z,97.90
2022-09-28T01:27:39.484Z,97.80
2022-09-28T01:27:48.875Z,97.70
2022-09-28T01:27:58.285Z,97.60
2022-09-28T01:28:07.706Z,97.40
2022-09-28T01:28:17.128Z,97.20
2022-09-28T01:28:26.558Z,97.00
2022-09-28T01:28:36.012Z,97.00
2022-09-28T01:28:45.446Z,97.00
2022-09-28T01:28:54.844Z,97.00
2022-09-28T01:29:04.249Z,97.00
2022-09-28T01:29:23.077Z,96.80
2022-09-28T01:29:32.470Z,96.70
2022-09-28T01:29:41.890Z,96.60
2022-09-28T01:29:51.474Z,96.60
2022-09-28T01:30:00.876Z,96.60
2022-09-28T01:30:10.278Z,96.50
2022-09-28T01:30:19.685Z,96.50
2022-09-28T01:30:29.093Z,96.40
2022-09-28T01:30:38.510Z,96.30
2022-09-28T01:30:47.900Z,96.10
2022-09-28T01:30:57.357Z,96.10
2022-09-28T01:31:06.770Z,96.20
2022-09-28T01:31:16.263Z,96.30
2022-09-28T01:31:25.656Z,96.30
2022-09-28T01:31:35.108Z,96.30
2022-09-28T01:31:44.524Z,96.30
2022-09-28T01:32:03.384Z,96.10
2022-09-28T01:32:12.719Z,96.00
2022-09-28T01:32:22.146Z,95.90
2022-09-28T01:32:31.560Z,95.80
2022-09-28T01:32:40.970Z,95.70
2022-09-28T01:32:50.368Z,95.50
2022-09-28T01:32:59.750Z,95.60
2022-09-28T01:33:09.176Z,95.60
2022-09-28T01:33:18.601Z,95.60
2022-09-28T01:33:28.004Z,95.40
2022-09-28T01:33:37.434Z,95.20
2022-09-28T01:33:46.827Z,95.20
2022-09-28T01:33:56.332Z,95.00
2022-09-28T01:34:05.748Z,94.90
2022-09-28T01:34:15.131Z,94.80
2022-09-28T01:34:24.558Z,94.90
2022-09-28T01:34:43.388Z,95.00
2022-09-28T01:34:52.799Z,94.90
2022-09-28T01:35:02.209Z,94.80
2022-09-28T01:35:11.631Z,94.70
2022-09-28T01:35:21.049Z,94.60
2022-09-28T01:35:30.454Z,94.40
2022-09-28T01:35:39.879Z,94.40
2022-09-28T01:35:49.296Z,94.50
2022-09-28T01:35:58.717Z,94.40
2022-09-28T01:36:08.150Z,94.20
2022-09-28T01:36:17.570Z,93.90
2022-09-28T01:36:26.989Z,93.70
2022-09-28T01:36:36.401Z,93.50
2022-09-28T01:36:45.823Z,93.40
2022-09-28T01:36:55.249Z,93.40
2022-09-28T01:37:04.660Z,93.40
2022-09-28T01:37:14.081Z,93.40
2022-09-28T01:37:32.922Z,93.00
2022-09-28T01:37:42.302Z,93.00
2022-09-28T01:37:51.717Z,93.10
2022-09-28T01:38:01.157Z,93.10
2022-09-28T01:38:10.543Z,93.10
2022-09-28T01:38:19.948Z,93.00
2022-09-28T01:38:29.352Z,93.10
2022-09-28T01:38:38.795Z,93.00
2022-09-28T01:38:48.224Z,93.00
2022-09-28T01:38:57.637Z,93.00
2022-09-28T01:39:07.040Z,93.00
2022-09-28T01:39:16.560Z,93.00
2022-09-28T01:39:25.870Z,92.90
2022-09-28T01:39:35.296Z,93.00
2022-09-28T01:39:44.683Z,93.00
2022-09-28T01:39:54.103Z,93.00
2022-09-28T01:40:12.927Z,93.00
2022-09-28T01:40:22.405Z,92.90
2022-09-28T01:40:31.791Z,93.10
2022-09-28T01:40:41.178Z,93.10
2022-09-28T01:40:50.683Z,93.10
2022-09-28T01:41:00.065Z,93.00
2022-09-28T01:41:09.394Z,93.00
2022-09-28T01:41:18.806Z,93.00
2022-09-28T01:41:28.206Z,92.90
2022-09-28T01:41:37.600Z,92.90
2022-09-28T01:41:47.027Z,92.80
2022-09-28T01:41:56.456Z,92.90
2022-09-28T01:42:05.847Z,92.80
2022-09-28T01:42:15.241Z,92.80
2022-09-28T01:42:24.650Z,92.90
2022-09-28T01:42:43.459Z,92.80
2022-09-28T01:42:52.900Z,92.80
2022-09-28T01:43:02.294Z,92.90
2022-09-28T01:43:11.698Z,92.80
2022-09-28T01:43:21.124Z,92.80
2022-09-28T01:43:30.536Z,92.70
2022-09-28T01:43:40.000Z,92.70
2022-09-28T01:43:49.427Z,92.60
2022-09-28T01:43:58.818Z,92.40
2022-09-28T01:44:08.276Z,92.40
2022-09-28T01:44:17.695Z,92.40
2022-09-28T01:44:27.130Z,92.40
2022-09-28T01:44:36.558Z,92.40
2022-09-28T01:44:45.986Z,92.40
2022-09-28T01:44:55.392Z,92.30
2022-09-28T01:45:04.809Z,92.30
2022-09-28T01:45:14.195Z,92.30
2022-09-28T01:45:33.050Z,92.30
2022-09-28T01:45:42.440Z,92.20
2022-09-28T01:45:51.875Z,92.20
2022-09-28T01:46:01.262Z,92.10
2022-09-28T01:46:10.745Z,92.10
2022-09-28T01:46:20.160Z,92.10
2022-09-28T01:46:29.498Z,92.10
2022-09-28T01:46:38.950Z,92.10
2022-09-28T01:46:48.358Z,92.00
2022-09-28T01:46:57.776Z,92.00
2022-09-28T01:47:07.182Z,91.90
2022-09-28T01:47:16.576Z,91.90
2022-09-28T01:47:25.967Z,91.90
2022-09-28T01:47:35.376Z,91.80
2022-09-28T01:47:44.778Z,91.80
2022-09-28T01:47:54.206Z,91.80
2022-09-28T01:48:13.010Z,91.60
2022-09-28T01:48:22.421Z,91.60
2022-09-28T01:48:31.823Z,91.60
2022-09-28T01:48:45.208Z,91.60
2022-09-28T01:48:54.600Z,91.60
2022-09-28T01:49:04.002Z,91.50
2022-09-28T01:49:13.507Z,91.50
2022-09-28T01:49:22.805Z,91.40
2022-09-28T01:49:32.200Z,91.40
2022-09-28T01:49:41.593Z,91.40
2022-09-28T01:49:51.009Z,91.40
2022-09-28T01:50:00.423Z,91.40
2022-09-28T01:50:09.814Z,91.40
2022-09-28T01:50:19.242Z,91.40
2022-09-28T01:50:28.645Z,91.40
2022-09-28T01:50:38.069Z,91.40
2022-09-28T01:50:47.477Z,91.40
2022-09-28T01:50:56.889Z,91.40
2022-09-28T01:51:06.345Z,91.40
2022-09-28T01:51:15.749Z,91.30
2022-09-28T01:51:25.168Z,91.30
2022-09-28T01:51:34.593Z,91.30
2022-09-28T01:51:53.432Z,91.30
2022-09-28T01:52:02.858Z,91.20
2022-09-28T01:52:12.281Z,91.20
2022-09-28T01:52:21.715Z,91.20
2022-09-28T01:52:31.118Z,91.10
2022-09-28T01:52:40.534Z,91.10
2022-09-28T01:52:49.972Z,91.10
2022-09-28T01:52:59.380Z,91.20
2022-09-28T01:53:08.801Z,91.10
2022-09-28T01:53:18.209Z,91.10
2022-09-28T01:53:27.625Z,91.10
2022-09-28T01:53:37.023Z,91.10
2022-09-28T01:53:46.464Z,91.10
2022-09-28T01:53:55.851Z,91.00
2022-09-28T01:54:05.244Z,90.90
2022-09-28T01:54:14.658Z,90.80
2022-09-28T01:54:33.499Z,90.70
2022-09-28T01:54:42.899Z,90.70
2022-09-28T01:54:52.328Z,90.80
2022-09-28T01:55:01.745Z,90.80
2022-09-28T01:55:11.172Z,90.80
2022-09-28T01:55:20.591Z,90.80
2022-09-28T01:55:30.020Z,90.70
2022-09-28T01:55:39.423Z,90.70
2022-09-28T01:55:48.833Z,90.70
2022-09-28T01:55:58.237Z,90.60
2022-09-28T01:56:07.689Z,90.60
2022-09-28T01:56:17.108Z,90.60
2022-09-28T01:56:26.526Z,90.50
2022-09-28T01:56:35.979Z,90.40
2022-09-28T01:56:45.388Z,90.40
2022-09-28T01:56:54.806Z,90.30
2022-09-28T01:57:04.254Z,90.40
2022-09-28T01:57:23.066Z,90.40
2022-09-28T01:57:32.480Z,90.50
2022-09-28T01:57:41.904Z,90.50
2022-09-28T01:57:51.341Z,90.50
2022-09-28T01:58:00.757Z,90.40
2022-09-28T01:58:10.163Z,90.40
2022-09-28T01:58:19.564Z,90.40
2022-09-28T01:58:28.961Z,90.40
2022-09-28T01:58:38.365Z,90.30
2022-09-28T01:58:47.783Z,90.30
2022-09-28T01:58:57.202Z,90.30
2022-09-28T01:59:06.594Z,90.30
2022-09-28T01:59:16.058Z,90.20
2022-09-28T01:59:25.430Z,90.20
2022-09-28T01:59:34.853Z,90.10
2022-09-28T01:59:44.280Z,90.10
2022-09-28T02:00:03.097Z,90.00
2022-09-28T02:00:12.477Z,90.10
2022-09-28T02:00:21.889Z,90.00
2022-09-28T02:00:31.358Z,90.00
2022-09-28T02:00:40.843Z,90.00
2022-09-28T02:00:50.225Z,90.00
2022-09-28T02:00:59.673Z,90.00
2022-09-28T02:01:09.069Z,90.00
2022-09-28T02:01:18.527Z,90.00
2022-09-28T02:01:27.846Z,90.00
2022-09-28T02:01:37.289Z,90.00
2022-09-28T02:01:46.760Z,90.00
2022-09-28T02:01:56.168Z,90.00
2022-09-28T02:02:05.594Z,90.00
2022-09-28T02:02:15.051Z,90.00
2022-09-28T02:02:24.407Z,90.00
2022-09-28T02:02:43.165Z,90.00
2022-09-28T02:02:52.601Z,90.00
2022-09-28T02:03:02.050Z,89.90
2022-09-28T02:03:11.488Z,89.80
2022-09-28T02:03:20.894Z,89.90
2022-09-28T02:03:33.159Z,89.90
2022-09-28T02:03:40.301Z,89.80
2022-09-28T02:03:53.783Z,89.60
2022-09-28T02:04:03.226Z,89.50
2022-09-28T02:04:12.618Z,89.60
2022-09-28T02:04:22.042Z,89.70
2022-09-28T02:04:31.473Z,89.80
2022-09-28T02:04:40.883Z,89.70
2022-09-28T02:04:50.297Z,89.80
2022-09-28T02:04:59.702Z,89.80
2022-09-28T02:05:09.087Z,89.80
2022-09-28T02:05:18.516Z,89.80
2022-09-28T02:05:27.918Z,89.80
2022-09-28T02:05:37.348Z,89.80
2022-09-28T02:05:46.781Z,89.80
2022-09-28T02:05:56.201Z,89.70
2022-09-28T02:06:05.615Z,89.60
2022-09-28T02:06:15.032Z,89.50
2022-09-28T02:06:24.458Z,89.40
2022-09-28T02:06:43.299Z,89.40
2022-09-28T02:06:52.718Z,89.50
2022-09-28T02:07:02.150Z,89.50
2022-09-28T02:07:11.577Z,89.70
2022-09-28T02:07:20.983Z,89.70
2022-09-28T02:07:30.414Z,89.80
2022-09-28T02:07:39.826Z,89.70
2022-09-28T02:07:49.253Z,89.80
2022-09-28T02:07:58.684Z,89.80
2022-09-28T02:08:08.098Z,89.80
2022-09-28T02:08:17.496Z,89.80
2022-09-28T02:08:26.962Z,89.80
2022-09-28T02:08:36.355Z,89.80
2022-09-28T02:08:45.770Z,89.80